sensor_id;sensor_type;location;lat;lon;timestamp;P1;durP1;ratioP1;P2;durP2;ratioP2
55461;SDS011;41327;45.102;20.624;2022-11-04T00:02:18;23.25;;;13.05;;
55461;SDS011;41327;45.102;20.624;2022-11-04T00:04:43;22.05;;;12.25;;
55461;SDS011;41327;45.102;20.624;2022-11-04T00:07:09;23.23;;;12.13;;
55461;SDS011;41327;45.102;20.624;2022-11-04T00:09:54;24.50;;;12.68;;
55461;SDS011;41327;45.102;20.624;2022-11-04T00:12:20;22.08;;;12.05;;
55461;SDS011;41327;45.102;20.624;2022-11-04T00:14:51;23.80;;;12.55;;
55461;SDS011;41327;45.102;20.624;2022-11-04T00:17:17;22.77;;;12.82;;
55461;SDS011;41327;45.102;20.624;2022-11-04T00:19:49;22.48;;;12.65;;
55461;SDS011;41327;45.102;20.624;2022-11-04T00:22:37;23.60;;;12.68;;
55461;SDS011;41327;45.102;20.624;2022-11-04T00:25:22;21.90;;;11.85;;
55461;SDS011;41327;45.102;20.624;2022-11-04T00:28:16;19.63;;;12.48;;
55461;SDS011;41327;45.102;20.624;2022-11-04T00:31:02;21.48;;;12.52;;
55461;SDS011;41327;45.102;20.624;2022-11-04T00:33:47;27.63;;;14.68;;
55461;SDS011;41327;45.102;20.624;2022-11-04T00:36:13;30.42;;;16.48;;
55461;SDS011;41327;45.102;20.624;2022-11-04T00:38:39;70.22;;;44.35;;
55461;SDS011;41327;45.102;20.624;2022-11-04T00:41:05;143.05;;;98.10;;
55461;SDS011;41327;45.102;20.624;2022-11-04T00:46:26;137.38;;;92.88;;
55461;SDS011;41327;45.102;20.624;2022-11-04T00:48:52;202.93;;;141.25;;
55461;SDS011;41327;45.102;20.624;2022-11-04T00:51:18;153.10;;;102.03;;
55461;SDS011;41327;45.102;20.624;2022-11-04T00:53:45;210.32;;;147.88;;
55461;SDS011;41327;45.102;20.624;2022-11-04T00:56:11;229.38;;;159.93;;
55461;SDS011;41327;45.102;20.624;2022-11-04T00:58:36;156.40;;;108.82;;
55461;SDS011;41327;45.102;20.624;2022-11-04T01:01:08;249.75;;;177.73;;
55461;SDS011;41327;45.102;20.624;2022-11-04T01:03:36;303.38;;;217.80;;
55461;SDS011;41327;45.102;20.624;2022-11-04T01:06:02;164.63;;;112.82;;
55461;SDS011;41327;45.102;20.624;2022-11-04T01:08:28;163.30;;;111.00;;
55461;SDS011;41327;45.102;20.624;2022-11-04T01:10:54;176.45;;;124.05;;
55461;SDS011;41327;45.102;20.624;2022-11-04T01:13:19;167.45;;;111.13;;
55461;SDS011;41327;45.102;20.624;2022-11-04T01:15:45;93.70;;;61.85;;
55461;SDS011;41327;45.102;20.624;2022-11-04T01:18:10;56.63;;;34.58;;
55461;SDS011;41327;45.102;20.624;2022-11-04T01:20:36;160.57;;;110.45;;
55461;SDS011;41327;45.102;20.624;2022-11-04T01:23:01;169.48;;;121.65;;
55461;SDS011;41327;45.102;20.624;2022-11-04T01:25:27;221.60;;;157.18;;
55461;SDS011;41327;45.102;20.624;2022-11-04T01:27:54;231.15;;;158.75;;
55461;SDS011;41327;45.102;20.624;2022-11-04T01:30:19;152.98;;;107.45;;
55461;SDS011;41327;45.102;20.624;2022-11-04T01:32:45;234.45;;;164.07;;
55461;SDS011;41327;45.102;20.624;2022-11-04T01:35:10;226.73;;;161.13;;
55461;SDS011;41327;45.102;20.624;2022-11-04T01:37:36;207.07;;;146.32;;
55461;SDS011;41327;45.102;20.624;2022-11-04T01:40:01;179.55;;;127.13;;
55461;SDS011;41327;45.102;20.624;2022-11-04T01:42:27;75.80;;;49.88;;
55461;SDS011;41327;45.102;20.624;2022-11-04T01:44:56;187.38;;;133.88;;
55461;SDS011;41327;45.102;20.624;2022-11-04T01:47:31;164.13;;;116.07;;
55461;SDS011;41327;45.102;20.624;2022-11-04T01:50:04;103.13;;;71.22;;
55461;SDS011;41327;45.102;20.624;2022-11-04T01:52:34;53.20;;;30.80;;
55461;SDS011;41327;45.102;20.624;2022-11-04T01:55:05;35.97;;;21.85;;
55461;SDS011;41327;45.102;20.624;2022-11-04T01:57:35;52.45;;;32.90;;
55461;SDS011;41327;45.102;20.624;2022-11-04T02:00:05;54.17;;;37.72;;
55461;SDS011;41327;45.102;20.624;2022-11-04T02:02:31;68.28;;;44.55;;
55461;SDS011;41327;45.102;20.624;2022-11-04T02:04:57;141.98;;;97.28;;
55461;SDS011;41327;45.102;20.624;2022-11-04T02:07:22;233.98;;;169.35;;
55461;SDS011;41327;45.102;20.624;2022-11-04T02:09:48;239.00;;;171.60;;
55461;SDS011;41327;45.102;20.624;2022-11-04T02:12:14;108.15;;;74.75;;
55461;SDS011;41327;45.102;20.624;2022-11-04T02:14:58;111.93;;;77.22;;
55461;SDS011;41327;45.102;20.624;2022-11-04T02:30:57;110.65;;;79.07;;
55461;SDS011;41327;45.102;20.624;2022-11-04T02:33:44;40.30;;;25.98;;
55461;SDS011;41327;45.102;20.624;2022-11-04T02:39:07;41.28;;;24.30;;
55461;SDS011;41327;45.102;20.624;2022-11-04T02:41:41;77.55;;;51.35;;
55461;SDS011;41327;45.102;20.624;2022-11-04T02:46:47;42.70;;;27.30;;
55461;SDS011;41327;45.102;20.624;2022-11-04T02:49:21;29.98;;;14.30;;
55461;SDS011;41327;45.102;20.624;2022-11-04T02:52:08;26.67;;;15.90;;
55461;SDS011;41327;45.102;20.624;2022-11-04T02:54:46;26.25;;;13.00;;
55461;SDS011;41327;45.102;20.624;2022-11-04T02:57:15;24.25;;;13.43;;
55461;SDS011;41327;45.102;20.624;2022-11-04T02:59:48;21.35;;;11.60;;
55461;SDS011;41327;45.102;20.624;2022-11-04T03:02:19;21.63;;;11.80;;
55461;SDS011;41327;45.102;20.624;2022-11-04T03:04:50;26.70;;;12.98;;
55461;SDS011;41327;45.102;20.624;2022-11-04T03:07:16;21.17;;;11.75;;
55461;SDS011;41327;45.102;20.624;2022-11-04T03:09:46;23.98;;;12.38;;
55461;SDS011;41327;45.102;20.624;2022-11-04T03:12:15;23.52;;;13.02;;
55461;SDS011;41327;45.102;20.624;2022-11-04T03:14:44;23.27;;;12.95;;
55461;SDS011;41327;45.102;20.624;2022-11-04T03:17:59;23.92;;;12.35;;
55461;SDS011;41327;45.102;20.624;2022-11-04T03:20:22;21.27;;;11.95;;
55461;SDS011;41327;45.102;20.624;2022-11-04T03:22:49;22.35;;;12.35;;
55461;SDS011;41327;45.102;20.624;2022-11-04T03:25:19;24.42;;;13.75;;
55461;SDS011;41327;45.102;20.624;2022-11-04T03:30:22;24.00;;;12.20;;
55461;SDS011;41327;45.102;20.624;2022-11-04T03:35:31;23.98;;;12.93;;
55461;SDS011;41327;45.102;20.624;2022-11-04T03:37:57;25.55;;;13.55;;
55461;SDS011;41327;45.102;20.624;2022-11-04T03:40:23;30.00;;;15.30;;
55461;SDS011;41327;45.102;20.624;2022-11-04T03:42:58;25.65;;;13.45;;
55461;SDS011;41327;45.102;20.624;2022-11-04T03:45:25;23.83;;;13.25;;
55461;SDS011;41327;45.102;20.624;2022-11-04T03:47:51;24.40;;;12.93;;
55461;SDS011;41327;45.102;20.624;2022-11-04T03:50:19;24.77;;;12.55;;
55461;SDS011;41327;45.102;20.624;2022-11-04T03:52:47;25.25;;;13.00;;
55461;SDS011;41327;45.102;20.624;2022-11-04T03:55:13;27.25;;;14.07;;
55461;SDS011;41327;45.102;20.624;2022-11-04T04:00:08;26.90;;;14.75;;
55461;SDS011;41327;45.102;20.624;2022-11-04T04:05:12;25.00;;;14.38;;
55461;SDS011;41327;45.102;20.624;2022-11-04T04:07:44;28.97;;;14.97;;
55461;SDS011;41327;45.102;20.624;2022-11-04T04:13:10;30.17;;;15.45;;
55461;SDS011;41327;45.102;20.624;2022-11-04T04:15:59;31.98;;;15.43;;
55461;SDS011;41327;45.102;20.624;2022-11-04T04:18:28;30.73;;;15.70;;
55461;SDS011;41327;45.102;20.624;2022-11-04T04:20:58;29.23;;;15.23;;
55461;SDS011;41327;45.102;20.624;2022-11-04T04:23:26;29.58;;;15.07;;
55461;SDS011;41327;45.102;20.624;2022-11-04T04:26:12;31.83;;;15.57;;
55461;SDS011;41327;45.102;20.624;2022-11-04T04:28:59;34.70;;;16.10;;
55461;SDS011;41327;45.102;20.624;2022-11-04T04:31:27;35.28;;;17.50;;
55461;SDS011;41327;45.102;20.624;2022-11-04T04:34:13;45.33;;;23.55;;
55461;SDS011;41327;45.102;20.624;2022-11-04T04:37:00;36.28;;;18.80;;
55461;SDS011;41327;45.102;20.624;2022-11-04T04:39:28;33.00;;;16.52;;
55461;SDS011;41327;45.102;20.624;2022-11-04T04:42:16;42.08;;;17.80;;
55461;SDS011;41327;45.102;20.624;2022-11-04T04:45:02;36.15;;;19.85;;
55461;SDS011;41327;45.102;20.624;2022-11-04T04:47:30;36.60;;;17.33;;
55461;SDS011;41327;45.102;20.624;2022-11-04T04:49:59;48.92;;;28.58;;
55461;SDS011;41327;45.102;20.624;2022-11-04T04:52:39;76.25;;;47.92;;
55461;SDS011;41327;45.102;20.624;2022-11-04T04:55:07;56.80;;;32.47;;
55461;SDS011;41327;45.102;20.624;2022-11-04T04:57:33;87.15;;;61.63;;
55461;SDS011;41327;45.102;20.624;2022-11-04T04:59:58;107.40;;;72.50;;
55461;SDS011;41327;45.102;20.624;2022-11-04T05:02:24;128.10;;;83.00;;
55461;SDS011;41327;45.102;20.624;2022-11-04T05:04:49;63.60;;;41.13;;
55461;SDS011;41327;45.102;20.624;2022-11-04T05:07:14;161.88;;;106.22;;
55461;SDS011;41327;45.102;20.624;2022-11-04T05:09:40;157.27;;;109.85;;
55461;SDS011;41327;45.102;20.624;2022-11-04T05:12:06;103.28;;;67.15;;
55461;SDS011;41327;45.102;20.624;2022-11-04T05:14:32;128.23;;;88.32;;
55461;SDS011;41327;45.102;20.624;2022-11-04T05:16:57;128.35;;;90.40;;
55461;SDS011;41327;45.102;20.624;2022-11-04T05:19:23;152.90;;;104.25;;
55461;SDS011;41327;45.102;20.624;2022-11-04T05:21:48;202.18;;;143.55;;
55461;SDS011;41327;45.102;20.624;2022-11-04T05:24:14;197.48;;;131.13;;
55461;SDS011;41327;45.102;20.624;2022-11-04T05:26:39;238.35;;;164.85;;
55461;SDS011;41327;45.102;20.624;2022-11-04T05:29:05;255.95;;;179.82;;
55461;SDS011;41327;45.102;20.624;2022-11-04T05:31:30;248.77;;;182.20;;
55461;SDS011;41327;45.102;20.624;2022-11-04T05:33:56;255.80;;;184.70;;
55461;SDS011;41327;45.102;20.624;2022-11-04T05:36:23;243.32;;;178.10;;
55461;SDS011;41327;45.102;20.624;2022-11-04T05:38:50;243.85;;;176.70;;
55461;SDS011;41327;45.102;20.624;2022-11-04T05:41:16;134.63;;;89.22;;
55461;SDS011;41327;45.102;20.624;2022-11-04T05:43:53;174.52;;;118.70;;
55461;SDS011;41327;45.102;20.624;2022-11-04T05:46:20;159.63;;;110.95;;
55461;SDS011;41327;45.102;20.624;2022-11-04T05:48:46;121.78;;;82.53;;
55461;SDS011;41327;45.102;20.624;2022-11-04T05:51:15;138.32;;;99.60;;
55461;SDS011;41327;45.102;20.624;2022-11-04T05:53:43;148.60;;;102.47;;
55461;SDS011;41327;45.102;20.624;2022-11-04T05:56:08;195.25;;;131.25;;
55461;SDS011;41327;45.102;20.624;2022-11-04T05:58:34;114.32;;;71.90;;
55461;SDS011;41327;45.102;20.624;2022-11-04T06:03:48;100.75;;;68.93;;
55461;SDS011;41327;45.102;20.624;2022-11-04T06:06:14;187.90;;;125.88;;
55461;SDS011;41327;45.102;20.624;2022-11-04T06:08:40;186.10;;;131.02;;
55461;SDS011;41327;45.102;20.624;2022-11-04T06:11:05;213.15;;;154.82;;
55461;SDS011;41327;45.102;20.624;2022-11-04T06:13:31;213.65;;;153.82;;
55461;SDS011;41327;45.102;20.624;2022-11-04T06:15:57;212.70;;;155.48;;
55461;SDS011;41327;45.102;20.624;2022-11-04T06:18:22;205.50;;;144.45;;
55461;SDS011;41327;45.102;20.624;2022-11-04T06:20:48;207.50;;;143.38;;
55461;SDS011;41327;45.102;20.624;2022-11-04T06:23:13;210.13;;;151.55;;
55461;SDS011;41327;45.102;20.624;2022-11-04T06:25:39;183.30;;;134.48;;
55461;SDS011;41327;45.102;20.624;2022-11-04T06:28:05;141.70;;;96.50;;
55461;SDS011;41327;45.102;20.624;2022-11-04T06:30:30;132.98;;;88.82;;
55461;SDS011;41327;45.102;20.624;2022-11-04T06:32:56;96.07;;;64.75;;
55461;SDS011;41327;45.102;20.624;2022-11-04T06:35:22;89.68;;;57.08;;
55461;SDS011;41327;45.102;20.624;2022-11-04T06:37:47;173.50;;;122.40;;
55461;SDS011;41327;45.102;20.624;2022-11-04T06:40:13;136.38;;;94.65;;
55461;SDS011;41327;45.102;20.624;2022-11-04T06:42:38;102.82;;;74.13;;
55461;SDS011;41327;45.102;20.624;2022-11-04T06:45:04;84.75;;;58.38;;
55461;SDS011;41327;45.102;20.624;2022-11-04T06:47:30;87.78;;;54.67;;
55461;SDS011;41327;45.102;20.624;2022-11-04T06:49:55;152.13;;;104.68;;
55461;SDS011;41327;45.102;20.624;2022-11-04T06:52:21;114.00;;;79.57;;
55461;SDS011;41327;45.102;20.624;2022-11-04T06:54:46;86.50;;;56.22;;
55461;SDS011;41327;45.102;20.624;2022-11-04T06:57:12;96.72;;;63.90;;
55461;SDS011;41327;45.102;20.624;2022-11-04T06:59:38;94.13;;;61.75;;
55461;SDS011;41327;45.102;20.624;2022-11-04T07:02:03;72.55;;;48.80;;
55461;SDS011;41327;45.102;20.624;2022-11-04T07:04:29;71.25;;;47.50;;
55461;SDS011;41327;45.102;20.624;2022-11-04T07:06:55;126.13;;;90.65;;
55461;SDS011;41327;45.102;20.624;2022-11-04T07:09:20;132.02;;;93.38;;
55461;SDS011;41327;45.102;20.624;2022-11-04T07:11:46;89.85;;;58.42;;
55461;SDS011;41327;45.102;20.624;2022-11-04T07:14:11;67.10;;;44.20;;
55461;SDS011;41327;45.102;20.624;2022-11-04T07:16:39;129.52;;;88.93;;
55461;SDS011;41327;45.102;20.624;2022-11-04T07:19:05;98.18;;;62.40;;
55461;SDS011;41327;45.102;20.624;2022-11-04T07:21:30;83.13;;;55.05;;
55461;SDS011;41327;45.102;20.624;2022-11-04T07:23:56;106.60;;;66.75;;
55461;SDS011;41327;45.102;20.624;2022-11-04T07:26:22;82.63;;;58.45;;
55461;SDS011;41327;45.102;20.624;2022-11-04T07:28:48;71.40;;;44.97;;
55461;SDS011;41327;45.102;20.624;2022-11-04T07:31:13;116.47;;;80.90;;
55461;SDS011;41327;45.102;20.624;2022-11-04T07:33:40;127.80;;;88.78;;
55461;SDS011;41327;45.102;20.624;2022-11-04T07:36:06;119.25;;;83.25;;
55461;SDS011;41327;45.102;20.624;2022-11-04T07:38:34;145.40;;;105.95;;
55461;SDS011;41327;45.102;20.624;2022-11-04T07:41:00;127.35;;;95.80;;
55461;SDS011;41327;45.102;20.624;2022-11-04T07:43:27;85.50;;;58.72;;
55461;SDS011;41327;45.102;20.624;2022-11-04T07:45:59;105.45;;;82.72;;
55461;SDS011;41327;45.102;20.624;2022-11-04T07:48:30;114.05;;;87.68;;
55461;SDS011;41327;45.102;20.624;2022-11-04T07:50:57;70.88;;;52.15;;
55461;SDS011;41327;45.102;20.624;2022-11-04T07:53:24;110.40;;;77.85;;
55461;SDS011;41327;45.102;20.624;2022-11-04T07:55:50;92.05;;;64.05;;
55461;SDS011;41327;45.102;20.624;2022-11-04T07:58:19;82.32;;;57.42;;
55461;SDS011;41327;45.102;20.624;2022-11-04T08:00:45;56.00;;;41.53;;
55461;SDS011;41327;45.102;20.624;2022-11-04T08:03:10;111.38;;;85.20;;
55461;SDS011;41327;45.102;20.624;2022-11-04T08:05:36;90.25;;;66.40;;
55461;SDS011;41327;45.102;20.624;2022-11-04T08:08:02;35.80;;;26.65;;
55461;SDS011;41327;45.102;20.624;2022-11-04T08:10:27;87.28;;;61.63;;
55461;SDS011;41327;45.102;20.624;2022-11-04T08:12:54;34.53;;;23.27;;
55461;SDS011;41327;45.102;20.624;2022-11-04T08:15:19;22.15;;;13.85;;
55461;SDS011;41327;45.102;20.624;2022-11-04T08:17:45;66.28;;;43.30;;
55461;SDS011;41327;45.102;20.624;2022-11-04T08:20:11;45.70;;;31.92;;
55461;SDS011;41327;45.102;20.624;2022-11-04T08:22:37;28.35;;;18.27;;
55461;SDS011;41327;45.102;20.624;2022-11-04T08:25:03;127.57;;;94.72;;
55461;SDS011;41327;45.102;20.624;2022-11-04T08:27:30;135.68;;;103.70;;
55461;SDS011;41327;45.102;20.624;2022-11-04T08:29:56;109.13;;;76.97;;
55461;SDS011;41327;45.102;20.624;2022-11-04T08:32:21;106.00;;;77.95;;
55461;SDS011;41327;45.102;20.624;2022-11-04T08:34:47;57.50;;;41.47;;
55461;SDS011;41327;45.102;20.624;2022-11-04T08:37:13;56.72;;;35.60;;
55461;SDS011;41327;45.102;20.624;2022-11-04T08:39:40;58.35;;;39.63;;
55461;SDS011;41327;45.102;20.624;2022-11-04T08:42:06;43.20;;;29.30;;
55461;SDS011;41327;45.102;20.624;2022-11-04T08:44:31;57.42;;;38.50;;
55461;SDS011;41327;45.102;20.624;2022-11-04T08:46:58;100.85;;;73.43;;
55461;SDS011;41327;45.102;20.624;2022-11-04T08:49:23;83.60;;;56.60;;
55461;SDS011;41327;45.102;20.624;2022-11-04T08:51:49;69.75;;;48.92;;
55461;SDS011;41327;45.102;20.624;2022-11-04T08:54:24;99.75;;;70.97;;
55461;SDS011;41327;45.102;20.624;2022-11-04T08:56:50;96.32;;;70.85;;
55461;SDS011;41327;45.102;20.624;2022-11-04T08:59:15;50.22;;;39.40;;
55461;SDS011;41327;45.102;20.624;2022-11-04T09:01:41;66.20;;;44.45;;
55461;SDS011;41327;45.102;20.624;2022-11-04T09:04:09;35.88;;;25.33;;
55461;SDS011;41327;45.102;20.624;2022-11-04T09:06:36;43.90;;;30.73;;
55461;SDS011;41327;45.102;20.624;2022-11-04T09:09:06;52.67;;;39.80;;
55461;SDS011;41327;45.102;20.624;2022-11-04T09:11:33;31.85;;;21.42;;
55461;SDS011;41327;45.102;20.624;2022-11-04T09:14:01;24.35;;;13.43;;
55461;SDS011;41327;45.102;20.624;2022-11-04T09:16:27;30.52;;;19.65;;
55461;SDS011;41327;45.102;20.624;2022-11-04T09:18:54;56.65;;;37.58;;
55461;SDS011;41327;45.102;20.624;2022-11-04T09:21:20;50.45;;;32.88;;
55461;SDS011;41327;45.102;20.624;2022-11-04T09:23:46;33.17;;;18.00;;
55461;SDS011;41327;45.102;20.624;2022-11-04T09:26:13;34.95;;;22.85;;
55461;SDS011;41327;45.102;20.624;2022-11-04T09:28:39;53.35;;;35.10;;
55461;SDS011;41327;45.102;20.624;2022-11-04T09:31:06;58.38;;;39.55;;
55461;SDS011;41327;45.102;20.624;2022-11-04T09:33:34;73.32;;;49.33;;
55461;SDS011;41327;45.102;20.624;2022-11-04T09:36:00;63.50;;;46.88;;
55461;SDS011;41327;45.102;20.624;2022-11-04T09:38:26;76.43;;;53.08;;
55461;SDS011;41327;45.102;20.624;2022-11-04T09:40:52;43.25;;;28.27;;
55461;SDS011;41327;45.102;20.624;2022-11-04T09:45:49;36.42;;;24.40;;
55461;SDS011;41327;45.102;20.624;2022-11-04T09:48:18;78.93;;;53.22;;
55461;SDS011;41327;45.102;20.624;2022-11-04T09:50:59;23.67;;;13.38;;
55461;SDS011;41327;45.102;20.624;2022-11-04T09:53:36;24.00;;;9.80;;
55461;SDS011;41327;45.102;20.624;2022-11-04T09:56:14;17.98;;;10.35;;
55461;SDS011;41327;45.102;20.624;2022-11-04T09:58:52;17.48;;;11.57;;
55461;SDS011;41327;45.102;20.624;2022-11-04T10:06:49;111.47;;;88.10;;
55461;SDS011;41327;45.102;20.624;2022-11-04T10:23:07;57.00;;;40.60;;
55461;SDS011;41327;45.102;20.624;2022-11-04T10:28:19;56.03;;;40.83;;
55461;SDS011;41327;45.102;20.624;2022-11-04T10:30:46;44.03;;;26.90;;
55461;SDS011;41327;45.102;20.624;2022-11-04T10:33:32;38.67;;;25.05;;
55461;SDS011;41327;45.102;20.624;2022-11-04T10:36:07;19.63;;;11.65;;
55461;SDS011;41327;45.102;20.624;2022-11-04T10:38:47;16.27;;;10.15;;
55461;SDS011;41327;45.102;20.624;2022-11-04T10:44:20;58.42;;;44.95;;
55461;SDS011;41327;45.102;20.624;2022-11-04T10:47:51;58.10;;;44.78;;
55461;SDS011;41327;45.102;20.624;2022-11-04T10:52:43;39.38;;;26.55;;
55461;SDS011;41327;45.102;20.624;2022-11-04T10:55:20;40.80;;;32.20;;
55461;SDS011;41327;45.102;20.624;2022-11-04T10:58:00;51.53;;;40.88;;
55461;SDS011;41327;45.102;20.624;2022-11-04T11:00:33;29.08;;;23.48;;
55461;SDS011;41327;45.102;20.624;2022-11-04T11:03:21;54.55;;;39.35;;
55461;SDS011;41327;45.102;20.624;2022-11-04T11:05:47;65.95;;;51.53;;
55461;SDS011;41327;45.102;20.624;2022-11-04T11:08:34;67.57;;;55.85;;
55461;SDS011;41327;45.102;20.624;2022-11-04T11:11:01;31.58;;;20.25;;
55461;SDS011;41327;45.102;20.624;2022-11-04T11:13:33;30.67;;;22.75;;
55461;SDS011;41327;45.102;20.624;2022-11-04T11:16:11;45.13;;;35.17;;
55461;SDS011;41327;45.102;20.624;2022-11-04T11:18:42;33.28;;;24.88;;
55461;SDS011;41327;45.102;20.624;2022-11-04T11:21:12;62.92;;;46.42;;
55461;SDS011;41327;45.102;20.624;2022-11-04T11:23:43;33.03;;;21.73;;
55461;SDS011;41327;45.102;20.624;2022-11-04T11:26:18;49.83;;;40.45;;
55461;SDS011;41327;45.102;20.624;2022-11-04T11:28:52;53.93;;;36.17;;
55461;SDS011;41327;45.102;20.624;2022-11-04T11:31:20;33.10;;;22.80;;
55461;SDS011;41327;45.102;20.624;2022-11-04T11:34:01;46.67;;;28.15;;
55461;SDS011;41327;45.102;20.624;2022-11-04T11:36:29;32.60;;;23.38;;
55461;SDS011;41327;45.102;20.624;2022-11-04T11:39:00;54.10;;;38.70;;
55461;SDS011;41327;45.102;20.624;2022-11-04T11:41:28;77.65;;;63.08;;
55461;SDS011;41327;45.102;20.624;2022-11-04T11:44:05;48.47;;;36.95;;
55461;SDS011;41327;45.102;20.624;2022-11-04T11:46:32;36.78;;;22.92;;
55461;SDS011;41327;45.102;20.624;2022-11-04T11:49:00;36.70;;;27.48;;
55461;SDS011;41327;45.102;20.624;2022-11-04T11:51:29;61.67;;;40.92;;
55461;SDS011;41327;45.102;20.624;2022-11-04T11:54:00;43.35;;;30.27;;
55461;SDS011;41327;45.102;20.624;2022-11-04T11:56:31;41.92;;;33.75;;
55461;SDS011;41327;45.102;20.624;2022-11-04T11:59:06;24.45;;;16.20;;
55461;SDS011;41327;45.102;20.624;2022-11-04T12:01:41;22.70;;;13.77;;
55461;SDS011;41327;45.102;20.624;2022-11-04T12:04:11;40.00;;;19.90;;
55461;SDS011;41327;45.102;20.624;2022-11-04T12:06:47;17.00;;;10.30;;
55461;SDS011;41327;45.102;20.624;2022-11-04T12:34:25;56.92;;;42.42;;
55461;SDS011;41327;45.102;20.624;2022-11-04T12:39:52;33.22;;;19.42;;
55461;SDS011;41327;45.102;20.624;2022-11-04T12:42:51;54.83;;;43.75;;
55461;SDS011;41327;45.102;20.624;2022-11-04T12:45:23;72.40;;;62.08;;
55461;SDS011;41327;45.102;20.624;2022-11-04T12:51:27;33.05;;;22.98;;
55461;SDS011;41327;45.102;20.624;2022-11-04T12:56:45;23.33;;;13.85;;
55461;SDS011;41327;45.102;20.624;2022-11-04T13:02:21;27.85;;;19.23;;
55461;SDS011;41327;45.102;20.624;2022-11-04T13:07:28;59.92;;;46.05;;
55461;SDS011;41327;45.102;20.624;2022-11-04T13:09:56;42.25;;;31.55;;
55461;SDS011;41327;45.102;20.624;2022-11-04T13:12:36;66.63;;;42.38;;
55461;SDS011;41327;45.102;20.624;2022-11-04T13:15:24;62.28;;;33.42;;
55461;SDS011;41327;45.102;20.624;2022-11-04T13:17:50;72.25;;;49.65;;
55461;SDS011;41327;45.102;20.624;2022-11-04T13:22:50;28.83;;;18.02;;
55461;SDS011;41327;45.102;20.624;2022-11-04T13:25:28;19.58;;;10.25;;
55461;SDS011;41327;45.102;20.624;2022-11-04T13:27:55;17.25;;;10.10;;
55461;SDS011;41327;45.102;20.624;2022-11-04T13:36:14;18.27;;;9.13;;
55461;SDS011;41327;45.102;20.624;2022-11-04T13:44:11;42.05;;;29.38;;
55461;SDS011;41327;45.102;20.624;2022-11-04T13:46:39;36.10;;;25.17;;
55461;SDS011;41327;45.102;20.624;2022-11-04T13:49:13;27.77;;;15.38;;
55461;SDS011;41327;45.102;20.624;2022-11-04T13:51:44;13.93;;;9.13;;
55461;SDS011;41327;45.102;20.624;2022-11-04T13:56:58;15.70;;;8.55;;
55461;SDS011;41327;45.102;20.624;2022-11-04T13:59:31;24.55;;;9.07;;
55461;SDS011;41327;45.102;20.624;2022-11-04T14:04:38;17.45;;;9.07;;
55461;SDS011;41327;45.102;20.624;2022-11-04T14:07:06;12.07;;;7.82;;
55461;SDS011;41327;45.102;20.624;2022-11-04T14:14:39;22.52;;;12.02;;
55461;SDS011;41327;45.102;20.624;2022-11-04T14:20:10;29.55;;;23.85;;
55461;SDS011;41327;45.102;20.624;2022-11-04T14:22:50;26.83;;;19.77;;
55461;SDS011;41327;45.102;20.624;2022-11-04T14:27:49;24.85;;;11.77;;
55461;SDS011;41327;45.102;20.624;2022-11-04T14:41:51;12.00;;;8.70;;
55461;SDS011;41327;45.102;20.624;2022-11-04T14:47:16;12.95;;;7.43;;
55461;SDS011;41327;45.102;20.624;2022-11-04T14:49:59;11.63;;;7.65;;
55461;SDS011;41327;45.102;20.624;2022-11-04T14:57:35;12.95;;;7.57;;
55461;SDS011;41327;45.102;20.624;2022-11-04T15:02:47;11.30;;;6.80;;
55461;SDS011;41327;45.102;20.624;2022-11-04T15:05:24;11.82;;;6.93;;
55461;SDS011;41327;45.102;20.624;2022-11-04T15:07:51;14.23;;;7.50;;
55461;SDS011;41327;45.102;20.624;2022-11-04T15:10:21;14.32;;;7.57;;
55461;SDS011;41327;45.102;20.624;2022-11-04T15:12:49;17.80;;;6.90;;
55461;SDS011;41327;45.102;20.624;2022-11-04T15:15:24;14.25;;;7.68;;
55461;SDS011;41327;45.102;20.624;2022-11-04T15:18:13;16.90;;;7.70;;
55461;SDS011;41327;45.102;20.624;2022-11-04T15:20:49;15.73;;;6.85;;
55461;SDS011;41327;45.102;20.624;2022-11-04T15:25:52;11.45;;;7.70;;
55461;SDS011;41327;45.102;20.624;2022-11-04T15:28:22;13.23;;;7.93;;
55461;SDS011;41327;45.102;20.624;2022-11-04T15:30:57;22.75;;;9.20;;
55461;SDS011;41327;45.102;20.624;2022-11-04T15:33:36;22.42;;;11.90;;
55461;SDS011;41327;45.102;20.624;2022-11-04T15:36:14;28.45;;;13.93;;
55461;SDS011;41327;45.102;20.624;2022-11-04T15:38:43;25.88;;;14.23;;
55461;SDS011;41327;45.102;20.624;2022-11-04T15:41:11;14.95;;;7.78;;
55461;SDS011;41327;45.102;20.624;2022-11-04T15:43:57;11.60;;;6.55;;
55461;SDS011;41327;45.102;20.624;2022-11-04T15:46:23;14.98;;;7.82;;
55461;SDS011;41327;45.102;20.624;2022-11-04T15:49:00;17.60;;;7.47;;
55461;SDS011;41327;45.102;20.624;2022-11-04T15:51:29;23.92;;;9.07;;
55461;SDS011;41327;45.102;20.624;2022-11-04T15:56:31;23.08;;;7.60;;
55461;SDS011;41327;45.102;20.624;2022-11-04T15:58:58;20.00;;;7.68;;
55461;SDS011;41327;45.102;20.624;2022-11-04T16:01:24;13.07;;;6.47;;
55461;SDS011;41327;45.102;20.624;2022-11-04T16:03:56;19.55;;;7.20;;
55461;SDS011;41327;45.102;20.624;2022-11-04T16:06:33;16.90;;;7.88;;
55461;SDS011;41327;45.102;20.624;2022-11-04T16:09:02;12.13;;;7.40;;
55461;SDS011;41327;45.102;20.624;2022-11-04T16:11:29;12.48;;;7.55;;
55461;SDS011;41327;45.102;20.624;2022-11-04T16:14:12;15.07;;;7.82;;
55461;SDS011;41327;45.102;20.624;2022-11-04T16:16:43;13.02;;;7.80;;
55461;SDS011;41327;45.102;20.624;2022-11-04T16:19:15;14.93;;;8.85;;
55461;SDS011;41327;45.102;20.624;2022-11-04T16:21:42;19.55;;;9.15;;
55461;SDS011;41327;45.102;20.624;2022-11-04T16:24:29;15.13;;;8.70;;
55461;SDS011;41327;45.102;20.624;2022-11-04T16:26:56;18.55;;;9.35;;
55461;SDS011;41327;45.102;20.624;2022-11-04T16:29:27;18.33;;;8.73;;
55461;SDS011;41327;45.102;20.624;2022-11-04T16:32:07;16.45;;;9.45;;
55461;SDS011;41327;45.102;20.624;2022-11-04T16:34:50;17.38;;;10.50;;
55461;SDS011;41327;45.102;20.624;2022-11-04T16:37:17;16.42;;;9.18;;
55461;SDS011;41327;45.102;20.624;2022-11-04T16:39:43;16.15;;;8.90;;
55461;SDS011;41327;45.102;20.624;2022-11-04T16:42:12;11.18;;;7.35;;
55461;SDS011;41327;45.102;20.624;2022-11-04T16:44:39;21.25;;;9.77;;
55461;SDS011;41327;45.102;20.624;2022-11-04T16:47:05;12.35;;;8.25;;
55461;SDS011;41327;45.102;20.624;2022-11-04T16:49:31;13.48;;;8.05;;
55461;SDS011;41327;45.102;20.624;2022-11-04T16:52:00;26.48;;;13.05;;
55461;SDS011;41327;45.102;20.624;2022-11-04T16:54:29;21.05;;;10.52;;
55461;SDS011;41327;45.102;20.624;2022-11-04T16:56:54;26.30;;;12.57;;
55461;SDS011;41327;45.102;20.624;2022-11-04T16:59:20;18.02;;;9.10;;
55461;SDS011;41327;45.102;20.624;2022-11-04T17:01:46;24.33;;;12.00;;
55461;SDS011;41327;45.102;20.624;2022-11-04T17:04:11;14.10;;;8.40;;
55461;SDS011;41327;45.102;20.624;2022-11-04T17:06:37;20.05;;;10.30;;
55461;SDS011;41327;45.102;20.624;2022-11-04T17:09:05;17.80;;;9.40;;